Time;durP1;ratioP1;P1;durP2;ratioP2;P2;SDS_P1;SDS_P2;PMS_P1;PMS_P2;Temp;Humidity;BMP_temperature;BMP_pressure;BME280_temperature;BME280_humidity;BME280_pressure;Samples;Min_cycle;Max_cycle;Signal;HPM_P1;HPM_P2
2023/10/05 03:30:35;;;;;;;1.88;1.45;;;8.20;99.90;;;;;;6113465;23;20189;-64
2023/10/05 03:33:04;;;;;;;1.80;1.35;;;8.20;99.90;;;;;;4962333;28;20225;-65
2023/10/05 03:35:33;;;;;;;2.45;1.70;;;8.30;99.90;;;;;;4958924;28;20217;-65
2023/10/05 03:38:00;;;;;;;1.70;1.60;;;8.30;99.90;;;;;;4971778;28;20215;-65
2023/10/05 03:40:35;;;;;;;1.73;1.58;;;8.30;99.90;;;;;;4976008;28;20229;-65
2023/10/05 03:43:03;;;;;;;1.92;1.73;;;8.30;99.90;;;;;;4980821;28;20557;-65
2023/10/05 03:45:32;;;;;;;3.38;1.50;;;8.30;99.90;;;;;;4989315;28;20205;-65
2023/10/05 03:47:59;;;;;;;2.22;2.00;;;8.30;99.90;;;;;;4991604;28;20207;-65
2023/10/05 03:50:26;;;;;;;2.13;1.67;;;8.40;99.90;;;;;;4993918;28;20712;-66
2023/10/05 03:52:53;;;;;;;1.85;1.42;;;8.40;99.90;;;;;;4993460;28;20750;-65
2023/10/05 03:55:20;;;;;;;2.63;1.50;;;8.40;99.90;;;;;;4993506;28;20493;-66
2023/10/05 03:57:46;;;;;;;2.85;1.77;;;8.40;99.90;;;;;;4993974;28;20208;-66
2023/10/05 04:00:31;;;;;;;2.78;1.60;;;8.40;99.90;;;;;;4993764;28;20208;-65
2023/10/05 04:02:59;;;;;;;2.33;2.00;;;8.40;99.90;;;;;;4985799;28;20281;-66
2023/10/05 04:05:26;;;;;;;2.28;1.60;;;8.40;99.90;;;;;;4993416;28;20211;-66
2023/10/05 04:07:55;;;;;;;3.92;1.70;;;8.40;99.90;;;;;;4993345;28;20210;-66
2023/10/05 04:10:23;;;;;;;2.22;1.45;;;8.50;99.90;;;;;;4993647;28;20714;-65
2023/10/05 04:12:54;;;;;;;2.65;1.85;;;8.50;99.90;;;;;;4993620;28;20215;-65
2023/10/05 04:15:21;;;;;;;2.95;1.67;;;8.50;99.90;;;;;;4993117;28;20243;-66
2023/10/05 04:17:49;;;;;;;2.20;1.92;;;8.50;99.90;;;;;;4993295;28;20207;-66
2023/10/05 04:20:27;;;;;;;1.90;1.63;;;8.50;99.90;;;;;;4993526;28;20409;-66
2023/10/05 04:22:54;;;;;;;2.10;1.55;;;8.50;99.90;;;;;;4993251;28;20210;-66
2023/10/05 04:25:20;;;;;;;3.30;1.65;;;8.50;99.90;;;;;;4993125;28;20206;-66
2023/10/05 04:27:48;;;;;;;5.60;1.80;;;8.50;99.90;;;;;;4993058;28;20201;-66
2023/10/05 04:30:18;;;;;;;2.05;1.85;;;8.50;99.90;;;;;;4992778;28;20673;-66
2023/10/05 04:32:45;;;;;;;2.70;1.85;;;8.50;99.90;;;;;;4992881;28;20672;-66
2023/10/05 04:35:21;;;;;;;2.95;1.60;;;8.50;99.90;;;;;;4992658;28;20220;-66
2023/10/05 04:37:51;;;;;;;3.85;2.00;;;8.50;99.90;;;;;;4992949;28;20203;-66
2023/10/05 04:40:19;;;;;;;2.55;1.67;;;8.50;99.90;;;;;;4987881;28;20214;-65
2023/10/05 04:42:46;;;;;;;2.20;2.00;;;8.50;99.90;;;;;;4991816;28;20511;-66
2023/10/05 04:45:14;;;;;;;2.45;1.80;;;8.50;99.90;;;;;;4991791;28;20211;-66
2023/10/05 04:47:41;;;;;;;2.50;1.85;;;8.50;99.90;;;;;;4992764;28;20628;-66
2023/10/05 04:50:13;;;;;;;3.40;1.75;;;8.50;99.90;;;;;;4992856;28;20212;-66
2023/10/05 04:52:40;;;;;;;2.55;1.70;;;8.50;99.90;;;;;;4992528;28;20203;-66
2023/10/05 04:55:18;;;;;;;1.80;1.30;;;8.60;99.90;;;;;;4991997;28;20234;-65
2023/10/05 04:57:52;;;;;;;2.25;1.38;;;8.60;99.90;;;;;;4991993;28;20207;-66
2023/10/05 05:03:17;;;;;;;1.98;1.45;;;8.60;99.90;;;;;;4990332;28;20215;-65
2023/10/05 05:06:08;;;;;;;2.60;2.20;;;8.60;99.90;;;;;;4992022;28;20211;-66
2023/10/05 05:08:38;;;;;;;3.20;1.92;;;8.60;99.90;;;;;;4992268;28;20280;-65
2023/10/05 05:11:08;;;;;;;3.38;1.88;;;8.60;99.90;;;;;;4992618;28;20245;-66
2023/10/05 05:13:36;;;;;;;2.72;1.60;;;8.60;99.90;;;;;;4992175;28;20207;-65
2023/10/05 05:16:05;;;;;;;1.90;1.70;;;8.60;99.90;;;;;;4991956;28;20211;-67
2023/10/05 05:18:31;;;;;;;2.35;1.70;;;8.60;99.90;;;;;;4992397;28;20209;-65
2023/10/05 05:20:58;;;;;;;3.45;1.80;;;8.60;99.90;;;;;;4991978;28;20223;-66
2023/10/05 05:23:25;;;;;;;2.30;1.70;;;8.60;99.90;;;;;;4992379;28;20203;-66
2023/10/05 05:25:52;;;;;;;2.08;1.70;;;8.60;99.90;;;;;;4989419;28;20592;-66
2023/10/05 05:28:21;;;;;;;2.70;1.90;;;8.60;99.90;;;;;;4990692;28;20207;-66
2023/10/05 05:30:48;;;;;;;2.58;1.83;;;8.60;99.90;;;;;;4991556;28;20228;-66
2023/10/05 05:33:17;;;;;;;4.20;1.95;;;8.60;99.90;;;;;;4991053;28;20221;-66
2023/10/05 05:35:44;;;;;;;3.53;1.92;;;8.50;99.90;;;;;;4990880;28;20334;-65
2023/10/05 05:38:11;;;;;;;2.45;1.80;;;8.50;99.90;;;;;;4991500;28;20263;-65
2023/10/05 05:40:38;;;;;;;2.67;1.92;;;8.50;99.90;;;;;;4991288;28;20742;-66
2023/10/05 05:43:08;;;;;;;2.40;2.10;;;8.60;99.90;;;;;;4991156;28;20222;-65
2023/10/05 05:45:39;;;;;;;1.70;1.58;;;8.60;99.90;;;;;;4991187;28;20266;-65
2023/10/05 05:48:09;;;;;;;2.03;1.73;;;8.60;99.90;;;;;;4991920;28;20673;-66
2023/10/05 05:50:39;;;;;;;4.25;1.60;;;8.60;99.90;;;;;;4991670;28;20223;-65
2023/10/05 05:53:06;;;;;;;2.70;2.05;;;8.60;99.90;;;;;;4991856;28;20210;-65
2023/10/05 05:55:33;;;;;;;2.97;1.55;;;8.60;99.90;;;;;;4990372;28;20239;-66
2023/10/05 05:58:00;;;;;;;2.58;2.03;;;8.60;99.90;;;;;;4991708;28;20222;-66
2023/10/05 06:00:28;;;;;;;2.10;1.73;;;8.60;99.90;;;;;;4991632;28;20203;-66
2023/10/05 06:02:58;;;;;;;2.20;2.00;;;8.70;99.90;;;;;;4991261;28;20207;-65
2023/10/05 06:05:25;;;;;;;2.72;1.70;;;8.70;99.90;;;;;;4991048;28;20299;-65
2023/10/05 06:07:52;;;;;;;3.50;2.00;;;8.70;99.90;;;;;;4991151;28;20695;-66
2023/10/05 06:10:28;;;;;;;2.83;2.28;;;8.70;99.90;;;;;;4991356;28;20303;-65
2023/10/05 06:12:55;;;;;;;1.90;1.70;;;8.70;99.90;;;;;;4991211;28;20223;-66
2023/10/05 06:15:22;;;;;;;2.47;1.98;;;8.90;99.90;;;;;;4990726;28;20217;-66
2023/10/05 06:17:49;;;;;;;1.85;1.75;;;9.00;99.90;;;;;;4991392;28;20695;-65
2023/10/05 06:20:18;;;;;;;4.05;1.75;;;9.00;99.90;;;;;;4990959;28;20212;-66
2023/10/05 06:22:47;;;;;;;2.85;2.00;;;9.00;99.90;;;;;;4991190;28;20208;-66
2023/10/05 06:25:15;;;;;;;3.00;2.20;;;9.00;99.90;;;;;;4990832;28;20211;-66
2023/10/05 06:27:43;;;;;;;3.67;2.33;;;9.00;99.90;;;;;;4991095;28;20742;-66
2023/10/05 06:30:11;;;;;;;1.83;1.70;;;9.00;99.90;;;;;;4991182;28;20210;-66
2023/10/05 06:32:37;;;;;;;3.63;1.88;;;9.00;99.90;;;;;;4991124;28;20303;-65
2023/10/05 06:35:08;;;;;;;2.00;1.80;;;9.10;99.90;;;;;;4990509;28;20212;-66
2023/10/05 06:37:38;;;;;;;1.98;1.75;;;9.10;99.90;;;;;;4991168;28;20203;-66
2023/10/05 06:40:09;;;;;;;5.75;2.05;;;9.10;99.90;;;;;;4991226;28;20216;-65
2023/10/05 06:42:37;;;;;;;2.38;1.70;;;9.20;99.90;;;;;;4990869;28;20783;-65
2023/10/05 06:45:07;;;;;;;2.45;1.70;;;9.20;99.90;;;;;;4990747;28;20287;-66
2023/10/05 06:47:38;;;;;;;2.42;1.75;;;9.20;99.90;;;;;;4991209;28;20214;-65
2023/10/05 06:50:08;;;;;;;3.25;2.78;;;9.20;99.90;;;;;;4991114;28;20205;-65
2023/10/05 06:52:40;;;;;;;1.90;1.50;;;9.30;99.90;;;;;;4991152;28;20689;-66
2023/10/05 06:55:08;;;;;;;2.70;2.05;;;9.30;99.90;;;;;;4990586;28;20205;-66
2023/10/05 06:57:36;;;;;;;2.58;2.38;;;9.40;99.90;;;;;;4991008;28;20240;-65
2023/10/05 07:00:11;;;;;;;2.85;2.20;;;9.50;99.90;;;;;;4991233;28;20266;-66
2023/10/05 07:02:39;;;;;;;2.47;2.05;;;9.60;99.90;;;;;;4991120;28;20197;-66
2023/10/05 07:05:06;;;;;;;2.63;1.70;;;9.70;99.90;;;;;;4990721;28;20260;-66
2023/10/05 07:07:34;;;;;;;2.80;2.35;;;9.70;99.90;;;;;;4992403;28;20748;-65
2023/10/05 07:10:04;;;;;;;4.45;2.30;;;9.80;99.90;;;;;;4994629;28;20699;-66
2023/10/05 07:12:32;;;;;;;3.00;1.83;;;9.80;99.90;;;;;;4994354;28;20257;-66
2023/10/05 07:14:59;;;;;;;3.13;2.05;;;9.90;99.90;;;;;;4989850;28;20215;-65
2023/10/05 07:17:26;;;;;;;2.85;1.58;;;9.90;99.90;;;;;;4994270;28;20226;-66
2023/10/05 07:19:54;;;;;;;3.00;1.58;;;10.00;99.90;;;;;;4994635;28;20208;-66
2023/10/05 07:22:21;;;;;;;2.03;1.80;;;10.00;99.90;;;;;;4994125;28;20769;-66
2023/10/05 07:24:47;;;;;;;5.90;1.95;;;10.10;99.90;;;;;;4993885;28;20205;-66
2023/10/05 07:27:15;;;;;;;3.30;2.40;;;10.20;99.90;;;;;;4994213;28;20215;-66
2023/10/05 07:29:44;;;;;;;1.42;1.30;;;10.30;99.90;;;;;;4994078;28;20268;-66
2023/10/05 07:32:12;;;;;;;6.45;2.08;;;10.40;99.90;;;;;;4993944;28;20232;-66
2023/10/05 07:34:40;;;;;;;3.08;1.90;;;10.50;99.90;;;;;;4994271;28;20199;-66
2023/10/05 07:37:10;;;;;;;3.90;2.00;;;10.50;99.90;;;;;;4994004;28;20209;-66
2023/10/05 07:39:37;;;;;;;2.35;1.90;;;10.60;99.90;;;;;;4993935;28;20237;-66
2023/10/05 07:42:04;;;;;;;3.03;1.73;;;10.70;99.90;;;;;;4993980;28;20321;-66
2023/10/05 07:44:32;;;;;;;2.30;1.60;;;10.80;99.90;;;;;;4993927;28;20210;-66
2023/10/05 07:46:59;;;;;;;2.78;1.98;;;10.90;99.90;;;;;;4988944;28;20697;-66
2023/10/05 07:49:26;;;;;;;2.53;2.28;;;11.10;99.90;;;;;;4993758;28;20685;-66
2023/10/05 07:51:52;;;;;;;1.98;1.50;;;11.20;99.90;;;;;;4993528;28;20225;-66
2023/10/05 07:54:21;;;;;;;2.20;2.00;;;11.40;99.90;;;;;;4993702;28;20560;-66
2023/10/05 07:56:47;;;;;;;1.58;1.48;;;11.50;99.90;;;;;;4993232;28;20204;-66
2023/10/05 07:59:14;;;;;;;2.03;1.58;;;11.60;99.90;;;;;;4993439;28;20654;-66
2023/10/05 08:01:43;;;;;;;2.10;1.90;;;11.80;99.90;;;;;;4993472;28;20219;-66
2023/10/05 08:04:11;;;;;;;1.65;1.55;;;11.90;99.90;;;;;;4993827;28;20587;-67
2023/10/05 08:06:39;;;;;;;4.75;1.98;;;11.90;99.90;;;;;;4990560;28;20210;-66
2023/10/05 08:09:06;;;;;;;2.53;2.17;;;12.00;99.90;;;;;;4993864;28;20233;-67
2023/10/05 08:11:34;;;;;;;2.78;1.65;;;12.10;99.90;;;;;;4993224;28;20231;-65
2023/10/05 08:14:01;;;;;;;3.28;2.22;;;12.20;99.90;;;;;;4993312;28;20679;-66
2023/10/05 08:16:28;;;;;;;3.10;1.97;;;12.30;99.90;;;;;;4993045;28;20298;-66
2023/10/05 08:18:56;;;;;;;2.22;1.98;;;12.50;99.90;;;;;;4992493;28;20476;-66
2023/10/05 08:21:23;;;;;;;8.40;2.28;;;12.60;99.90;;;;;;4993097;28;20239;-66
2023/10/05 08:23:51;;;;;;;4.97;2.25;;;12.70;99.90;;;;;;4993012;28;20203;-65
2023/10/05 08:26:18;;;;;;;5.82;2.22;;;12.90;99.90;;;;;;4992754;28;20218;-66
2023/10/05 08:28:48;;;;;;;2.97;2.22;;;13.00;99.90;;;;;;4993015;28;20584;-66
2023/10/05 08:31:22;;;;;;;5.60;2.50;;;13.10;99.90;;;;;;4992749;28;20239;-66
2023/10/05 08:33:49;;;;;;;2.80;1.97;;;13.10;99.90;;;;;;4992889;28;20467;-66
2023/10/05 08:36:17;;;;;;;3.80;2.37;;;13.20;99.90;;;;;;4992665;28;20865;-67
2023/10/05 08:38:47;;;;;;;3.33;2.43;;;13.30;99.90;;;;;;4992947;28;20469;-66
2023/10/05 08:41:24;;;;;;;4.97;2.50;;;13.40;99.90;;;;;;4992980;28;20493;-66
2023/10/05 08:43:53;;;;;;;4.47;2.63;;;13.50;99.90;;;;;;4992737;28;20554;-66
2023/10/05 08:46:21;;;;;;;3.40;2.00;;;13.70;99.90;;;;;;4992677;28;20829;-66
2023/10/05 08:48:49;;;;;;;4.70;2.60;;;13.80;99.90;;;;;;4992742;28;20567;-66
2023/10/05 08:51:17;;;;;;;4.20;2.83;;;14.00;99.90;;;;;;4993895;28;20505;-66
2023/10/05 08:53:48;;;;;;;3.03;2.50;;;14.20;99.90;;;;;;4992670;28;20495;-66
2023/10/05 08:56:16;;;;;;;5.20;2.90;;;14.50;99.90;;;;;;4992457;28;20470;-64
2023/10/05 08:58:45;;;;;;;8.70;3.10;;;14.80;99.90;;;;;;4992386;28;20793;-64
2023/10/05 09:01:31;;;;;;;5.77;2.83;;;15.10;99.90;;;;;;4992661;28;20523;-64
2023/10/05 09:04:11;;;;;;;5.50;2.60;;;15.40;99.90;;;;;;4986689;28;20477;-63
2023/10/05 09:06:48;;;;;;;5.90;2.37;;;15.60;99.90;;;;;;4991715;28;20492;-63
2023/10/05 09:09:15;;;;;;;7.57;3.03;;;15.80;99.90;;;;;;4992713;28;20493;-64
2023/10/05 09:11:42;;;;;;;6.37;2.83;;;16.00;99.90;;;;;;4991838;28;20490;-64
2023/10/05 09:14:13;;;;;;;5.90;3.03;;;16.00;99.90;;;;;;4992413;28;20519;-64
2023/10/05 09:16:45;;;;;;;3.83;2.47;;;16.00;99.90;;;;;;4991770;28;20462;-65
2023/10/05 09:19:15;;;;;;;5.03;2.77;;;16.00;99.90;;;;;;4992331;28;20516;-64
2023/10/05 09:21:54;;;;;;;3.73;2.53;;;16.00;99.90;;;;;;4991700;28;20585;-64
2023/10/05 09:24:22;;;;;;;3.77;3.40;;;15.90;99.90;;;;;;4991973;28;20524;-63
2023/10/05 09:26:54;;;;;;;3.47;2.40;;;16.00;99.90;;;;;;4991501;28;20532;-64
2023/10/05 09:29:21;;;;;;;6.20;3.23;;;16.00;99.90;;;;;;4991895;28;20466;-64
2023/10/05 09:31:51;;;;;;;6.27;2.93;;;16.00;99.90;;;;;;4991389;28;20868;-64
2023/10/05 09:34:20;;;;;;;3.70;2.60;;;15.90;99.90;;;;;;4991926;28;20469;-64
2023/10/05 09:36:53;;;;;;;3.97;2.37;;;16.00;99.90;;;;;;4989629;28;20478;-64
2023/10/05 09:39:22;;;;;;;7.10;3.10;;;16.00;99.90;;;;;;4992005;28;20474;-63
2023/10/05 09:41:52;;;;;;;7.63;3.37;;;16.00;99.90;;;;;;4991467;28;20489;-64
2023/10/05 09:44:22;;;;;;;5.53;2.53;;;16.00;99.90;;;;;;4992067;28;20462;-64
2023/10/05 09:46:49;;;;;;;5.80;2.57;;;16.00;99.90;;;;;;4991295;28;20557;-64
2023/10/05 09:49:17;;;;;;;3.70;2.13;;;16.00;99.90;;;;;;4992240;28;20914;-64
2023/10/05 09:51:48;;;;;;;6.83;2.63;;;16.00;99.90;;;;;;4991130;28;21101;-64
2023/10/05 09:54:19;;;;;;;5.97;3.10;;;16.00;99.90;;;;;;4991679;28;20529;-64
2023/10/05 09:56:47;;;;;;;5.20;4.00;;;16.10;99.90;;;;;;4989727;28;20465;-64
2023/10/05 09:59:16;;;;;;;3.90;2.43;;;16.10;99.90;;;;;;4991649;28;20469;-64
2023/10/05 10:01:47;;;;;;;4.43;2.93;;;16.20;99.90;;;;;;4991037;28;20573;-66
2023/10/05 10:04:34;;;;;;;4.63;2.50;;;16.30;99.90;;;;;;4991524;28;21006;-64
2023/10/05 10:07:15;;;;;;;3.60;2.63;;;16.40;99.90;;;;;;4991334;28;20491;-64
2023/10/05 10:09:46;;;;;;;4.10;2.60;;;16.40;99.90;;;;;;4990939;28;20454;-64
2023/10/05 10:12:25;;;;;;;3.97;2.63;;;16.60;99.90;;;;;;4991497;28;20488;-64
2023/10/05 10:14:53;;;;;;;3.90;3.30;;;16.70;99.90;;;;;;4990858;28;20512;-64
2023/10/05 10:17:27;;;;;;;5.30;2.80;;;16.80;99.90;;;;;;4991405;28;20548;-66
2023/10/05 10:20:07;;;;;;;9.07;3.23;;;17.00;99.90;;;;;;4991250;28;20462;-64
2023/10/05 10:22:55;;;;;;;6.90;2.93;;;17.30;99.90;;;;;;4991139;28;20577;-63
2023/10/05 10:25:29;;;;;;;4.40;2.67;;;17.50;99.90;;;;;;4991086;28;20691;-64
2023/10/05 10:28:16;;;;;;;6.33;3.10;;;17.70;99.90;;;;;;4991106;28;20573;-64
2023/10/05 10:30:47;;;;;;;4.37;2.43;;;17.80;99.90;;;;;;4990713;28;20906;-64
2023/10/05 10:33:35;;;;;;;4.93;3.00;;;17.90;99.90;;;;;;4991303;28;20491;-64
2023/10/05 10:36:04;;;;;;;6.93;2.27;;;18.20;99.90;;;;;;4984540;28;20462;-64
2023/10/05 10:38:30;;;;;;;4.13;2.43;;;18.50;99.90;;;;;;4990966;28;20887;-64
2023/10/05 10:41:10;;;;;;;4.43;2.50;;;18.80;99.90;;;;;;4984200;28;20490;-64
2023/10/05 10:43:37;;;;;;;6.10;2.13;;;18.80;99.90;;;;;;4993988;28;20880;-64
2023/10/05 10:46:13;;;;;;;6.03;2.10;;;18.70;99.90;;;;;;4994775;28;20969;-64
2023/10/05 10:48:53;;;;;;;4.07;2.77;;;18.70;99.90;;;;;;4994586;28;20461;-64
2023/10/05 10:51:21;;;;;;;7.60;3.10;;;18.50;99.90;;;;;;4995017;28;20478;-64
2023/10/05 10:53:55;;;;;;;4.70;2.43;;;18.30;99.90;;;;;;4994757;28;20486;-65
2023/10/05 10:56:27;;;;;;;5.30;2.00;;;18.30;99.90;;;;;;4994684;28;20462;-64
2023/10/05 10:59:09;;;;;;;4.13;2.50;;;18.20;99.90;;;;;;5180917;23;20479;-93
2023/10/05 11:01:44;;;;;;;4.33;2.67;;;18.10;99.90;;;;;;5018360;28;20477;-95
2023/10/05 11:07:05;;;;;;;4.07;2.40;;;18.00;99.90;;;;;;5013262;28;20502;-93
2023/10/05 11:09:46;;;;;;;2.27;1.70;;;17.90;99.90;;;;;;5018388;28;20477;-95
2023/10/05 11:12:17;;;;;;;5.33;3.00;;;17.80;99.90;;;;;;5017408;28;20466;-95
2023/10/05 11:14:47;;;;;;;5.50;2.67;;;17.60;99.90;;;;;;5016333;28;20475;-95
2023/10/05 11:21:35;;;;;;;4.47;2.93;;;17.30;99.90;;;;;;4938929;29;20472;-93
2023/10/05 11:24:06;;;;;;;4.43;2.20;;;17.20;99.90;;;;;;4985513;28;20525;-93
2023/10/05 11:26:34;;;;;;;4.03;2.23;;;17.10;99.90;;;;;;5016448;28;20463;-94
2023/10/05 11:29:07;;;;;;;3.93;2.30;;;17.00;99.90;;;;;;5014937;28;20506;-93
2023/10/05 11:31:35;;;;;;;4.03;2.40;;;17.00;99.90;;;;;;5015910;28;20462;-94
2023/10/05 11:34:08;;;;;;;6.00;2.53;;;17.00;99.90;;;;;;5006576;28;20477;-94
2023/10/05 11:36:39;;;;;;;5.10;3.00;;;16.90;99.90;;;;;;5015056;28;20538;-93
2023/10/05 11:39:20;;;;;;;4.30;2.63;;;16.90;99.90;;;;;;5014773;28;20513;-94
2023/10/05 11:41:48;;;;;;;3.50;1.90;;;16.80;99.90;;;;;;5006153;28;20468;-94
2023/10/05 11:44:20;;;;;;;3.03;2.30;;;16.80;99.90;;;;;;5013685;28;20498;-93
2023/10/05 11:46:53;;;;;;;3.93;2.30;;;16.70;99.90;;;;;;5012691;28;20459;-93
2023/10/05 11:49:21;;;;;;;5.40;2.80;;;16.60;99.90;;;;;;5013597;28;20502;-94
2023/10/05 11:51:56;;;;;;;6.03;3.30;;;16.60;99.90;;;;;;5012246;28;20477;-94
2023/10/05 11:54:24;;;;;;;4.70;2.60;;;16.60;99.90;;;;;;5012157;28;20470;-95
2023/10/05 11:56:53;;;;;;;4.27;2.70;;;16.50;99.90;;;;;;5015411;28;20474;-94
2023/10/05 11:59:27;;;;;;;3.93;2.43;;;16.50;99.90;;;;;;5013684;28;20503;-95
2023/10/05 12:01:54;;;;;;;3.33;2.47;;;16.50;99.90;;;;;;5014569;28;20476;-93
2023/10/05 12:04:23;;;;;;;8.33;1.93;;;16.50;99.90;;;;;;5014949;28;20492;-92
2023/10/05 12:06:58;;;;;;;4.83;2.30;;;16.50;99.90;;;;;;5014575;28;20477;-93
2023/10/05 12:09:32;;;;;;;3.53;2.37;;;16.50;99.90;;;;;;5013512;28;20496;-92
2023/10/05 12:12:01;;;;;;;4.67;2.57;;;16.60;99.90;;;;;;5006861;28;20462;-92
2023/10/05 12:14:29;;;;;;;4.50;2.10;;;16.60;99.90;;;;;;5015165;28;20575;-92
2023/10/05 12:16:59;;;;;;;4.83;2.10;;;16.70;99.90;;;;;;5014437;28;20490;-94
2023/10/05 12:19:29;;;;;;;3.73;2.27;;;16.70;99.90;;;;;;5013985;28;20494;-93
2023/10/05 12:21:56;;;;;;;2.47;1.80;;;16.70;99.90;;;;;;5013830;28;20492;-93
2023/10/05 12:24:24;;;;;;;4.77;2.60;;;16.80;99.90;;;;;;5011859;28;20503;-93
2023/10/05 12:26:51;;;;;;;3.90;2.33;;;16.80;99.90;;;;;;5014097;28;20462;-94
2023/10/05 12:29:19;;;;;;;4.03;2.50;;;16.70;99.90;;;;;;5015340;28;20573;-93
2023/10/05 12:31:49;;;;;;;3.77;2.23;;;16.80;99.90;;;;;;5016164;28;20465;-94
2023/10/05 12:34:16;;;;;;;3.30;2.50;;;16.80;99.90;;;;;;5015779;28;20469;-94
2023/10/05 12:36:45;;;;;;;2.70;1.83;;;16.80;99.90;;;;;;5015076;28;20480;-94
2023/10/05 12:39:14;;;;;;;3.87;2.30;;;16.80;99.90;;;;;;5015896;28;20482;-93
2023/10/05 12:41:44;;;;;;;5.10;2.70;;;16.70;99.90;;;;;;5010954;28;20461;-93
2023/10/05 12:44:15;;;;;;;3.20;2.17;;;16.70;99.90;;;;;;4999846;28;20561;-93
2023/10/05 12:46:45;;;;;;;3.37;2.50;;;16.60;99.90;;;;;;5000172;28;20463;-93
2023/10/05 12:49:59;;;;;;;5.43;2.50;;;16.60;99.90;;;;;;4999393;28;20490;-94
2023/10/05 12:56:19;;;;;;;3.23;2.10;;;16.40;99.90;;;;;;4870632;28;20444;-93
2023/10/05 13:12:27;;;;;;;5.43;2.60;;;15.90;99.90;;;;;;4957178;28;20982;-92
2023/10/05 13:18:24;;;;;;;2.67;1.80;;;15.80;99.90;;;;;;4968295;23;20445;-66
2023/10/05 13:20:53;;;;;;;3.70;1.90;;;15.70;99.90;;;;;;4992377;28;20825;-65
2023/10/05 13:23:21;;;;;;;4.10;2.23;;;15.70;99.90;;;;;;4992167;28;20516;-65
2023/10/05 13:25:49;;;;;;;3.37;2.17;;;15.70;99.90;;;;;;4992047;28;20978;-65
2023/10/05 13:28:17;;;;;;;3.57;2.27;;;15.60;99.90;;;;;;4992457;28;20474;-66
2023/10/05 13:30:47;;;;;;;4.50;2.50;;;15.60;99.90;;;;;;4992143;28;20484;-66
2023/10/05 13:33:17;;;;;;;3.10;2.30;;;15.50;99.90;;;;;;4992356;28;20462;-65
2023/10/05 13:35:47;;;;;;;3.27;2.23;;;15.50;99.90;;;;;;4991742;28;20980;-66
2023/10/05 13:38:14;;;;;;;3.97;2.27;;;15.50;99.90;;;;;;4992270;28;20497;-66
2023/10/05 13:40:57;;;;;;;3.53;2.30;;;15.40;99.90;;;;;;4992239;28;20489;-65
2023/10/05 13:43:29;;;;;;;4.57;2.07;;;15.50;99.90;;;;;;4987716;28;20484;-66
2023/10/05 13:45:59;;;;;;;3.07;1.73;;;15.50;99.90;;;;;;4991797;28;20477;-66
2023/10/05 13:48:29;;;;;;;4.03;2.50;;;15.50;99.90;;;;;;4991964;28;20915;-66
2023/10/05 13:50:56;;;;;;;5.77;2.50;;;15.50;99.90;;;;;;4991972;28;20542;-65
2023/10/05 13:53:23;;;;;;;3.70;2.60;;;15.40;99.90;;;;;;4991871;28;20845;-66
2023/10/05 13:55:51;;;;;;;6.17;2.70;;;15.40;99.90;;;;;;4991574;28;20462;-66
2023/10/05 13:58:20;;;;;;;6.07;2.47;;;15.40;99.90;;;;;;4991834;28;20465;-66
2023/10/05 14:00:48;;;;;;;3.30;1.93;;;15.40;99.90;;;;;;4991595;28;21025;-66
2023/10/05 14:03:15;;;;;;;2.60;2.00;;;15.30;99.90;;;;;;4991816;28;20485;-66
2023/10/05 14:05:50;;;;;;;3.83;2.40;;;15.30;99.90;;;;;;4991709;28;20474;-65
2023/10/05 14:08:17;;;;;;;2.63;2.27;;;15.30;99.90;;;;;;4992191;28;20501;-65
2023/10/05 14:10:44;;;;;;;2.80;1.80;;;15.20;99.90;;;;;;4991705;28;20491;-65
2023/10/05 14:13:11;;;;;;;3.70;2.40;;;15.20;99.90;;;;;;4985615;28;20472;-65
2023/10/05 14:15:39;;;;;;;2.83;1.47;;;15.20;99.90;;;;;;4991200;28;20479;-65
2023/10/05 14:18:09;;;;;;;5.77;2.73;;;15.20;99.90;;;;;;4990674;28;20848;-66
2023/10/05 14:20:38;;;;;;;3.57;2.20;;;15.20;99.90;;;;;;4991540;28;21000;-66
2023/10/05 14:23:06;;;;;;;3.20;2.00;;;15.20;99.90;;;;;;4991477;28;20496;-66
2023/10/05 14:25:33;;;;;;;4.60;2.40;;;15.20;99.90;;;;;;4991094;28;20476;-66
2023/10/05 14:27:59;;;;;;;4.73;2.07;;;15.10;99.90;;;;;;4991490;28;20473;-66
2023/10/05 14:30:26;;;;;;;5.23;2.93;;;15.10;99.90;;;;;;4991463;28;20471;-65
2023/10/05 14:32:54;;;;;;;3.83;2.27;;;15.10;99.90;;;;;;4991293;28;20465;-66
2023/10/05 14:35:23;;;;;;;4.20;2.43;;;15.10;99.90;;;;;;4991272;28;20456;-66
2023/10/05 14:37:52;;;;;;;3.87;2.40;;;15.00;99.90;;;;;;4991380;28;20460;-66
2023/10/05 14:40:21;;;;;;;4.20;2.80;;;15.00;99.90;;;;;;4991660;28;20471;-66
2023/10/05 14:42:50;;;;;;;5.20;2.53;;;15.00;99.90;;;;;;4991426;28;20527;-65
2023/10/05 14:45:20;;;;;;;4.13;2.63;;;15.00;99.90;;;;;;4990998;28;20496;-65
2023/10/05 14:47:49;;;;;;;2.43;2.10;;;14.90;99.90;;;;;;4991455;28;20488;-66
2023/10/05 14:50:18;;;;;;;2.80;1.70;;;14.90;99.90;;;;;;4985874;28;20859;-66
2023/10/05 14:52:49;;;;;;;3.20;2.20;;;14.90;99.90;;;;;;4991333;28;20948;-66
2023/10/05 14:55:17;;;;;;;4.13;3.00;;;14.90;99.90;;;;;;4985685;28;21026;-66
2023/10/05 14:57:44;;;;;;;4.27;2.27;;;14.90;99.90;;;;;;4991314;28;20495;-66
2023/10/05 15:00:14;;;;;;;4.33;2.20;;;14.90;99.90;;;;;;4991301;28;20837;-66
2023/10/05 15:02:42;;;;;;;6.40;3.00;;;14.90;99.90;;;;;;4991035;28;20888;-66
2023/10/05 15:05:11;;;;;;;5.60;2.63;;;14.80;99.90;;;;;;4990839;28;20636;-66
2023/10/05 15:07:39;;;;;;;4.50;2.30;;;14.80;99.90;;;;;;4991058;28;20473;-65
2023/10/05 15:10:15;;;;;;;4.63;2.43;;;14.70;99.90;;;;;;4991226;28;20465;-66
2023/10/05 15:12:44;;;;;;;5.20;2.93;;;14.70;99.90;;;;;;4991219;28;20475;-66
2023/10/05 15:15:11;;;;;;;5.77;2.73;;;14.70;99.90;;;;;;4990761;28;20467;-65
2023/10/05 15:17:38;;;;;;;4.80;2.33;;;14.70;99.90;;;;;;4990979;28;20763;-66
2023/10/05 15:20:10;;;;;;;3.67;2.50;;;14.70;99.90;;;;;;4991014;28;20525;-66
2023/10/05 15:22:39;;;;;;;5.10;2.60;;;14.70;99.90;;;;;;4990896;28;20484;-66
2023/10/05 15:25:09;;;;;;;4.77;3.10;;;14.70;99.90;;;;;;4990792;28;20488;-66
2023/10/05 15:27:37;;;;;;;2.43;2.00;;;14.70;99.90;;;;;;4990811;28;20982;-66
2023/10/05 15:30:06;;;;;;;6.80;3.00;;;14.60;99.90;;;;;;4994377;28;20969;-66
2023/10/05 15:32:33;;;;;;;3.50;2.47;;;14.70;99.90;;;;;;4994198;28;20520;-66
2023/10/05 15:35:00;;;;;;;4.97;2.53;;;14.60;99.90;;;;;;4994321;28;20470;-66
2023/10/05 15:37:27;;;;;;;5.50;2.03;;;14.60;99.90;;;;;;4994552;28;20469;-65
2023/10/05 15:39:54;;;;;;;4.20;2.50;;;14.60;99.90;;;;;;4994341;28;20475;-65
2023/10/05 15:42:22;;;;;;;4.70;2.57;;;14.70;99.90;;;;;;4994543;28;20864;-66
2023/10/05 15:44:49;;;;;;;5.13;3.00;;;14.70;99.90;;;;;;4993864;28;20489;-66
2023/10/05 15:47:16;;;;;;;5.50;2.07;;;14.70;99.90;;;;;;4994146;28;20460;-65
2023/10/05 15:49:42;;;;;;;5.83;2.40;;;14.70;99.90;;;;;;4994100;28;20500;-66
2023/10/05 15:52:09;;;;;;;3.43;2.40;;;14.70;99.90;;;;;;4993980;28;20491;-66
2023/10/05 15:54:38;;;;;;;3.03;2.10;;;14.60;99.90;;;;;;4993827;28;20476;-65
2023/10/05 15:57:05;;;;;;;5.00;2.53;;;14.60;99.90;;;;;;4993936;28;20845;-66
2023/10/05 15:59:33;;;;;;;3.70;2.33;;;14.60;99.90;;;;;;4993846;28;20475;-65
2023/10/05 16:02:00;;;;;;;5.23;2.57;;;14.60;99.90;;;;;;4993868;28;20491;-65
2023/10/05 16:04:27;;;;;;;12.50;2.90;;;14.50;99.90;;;;;;4993699;28;21036;-65
2023/10/05 16:07:06;;;;;;;3.37;2.50;;;14.50;99.90;;;;;;4993691;28;20463;-65
2023/10/05 16:09:33;;;;;;;4.27;2.90;;;14.50;99.90;;;;;;4990634;28;20968;-64
2023/10/05 16:12:00;;;;;;;4.20;2.70;;;14.50;99.90;;;;;;4993757;28;20489;-65
2023/10/05 16:14:27;;;;;;;4.73;2.50;;;14.50;99.90;;;;;;4993583;28;20468;-65
2023/10/05 16:16:56;;;;;;;4.37;2.37;;;14.40;99.90;;;;;;4993389;28;21043;-65
2023/10/05 16:19:23;;;;;;;5.10;2.87;;;14.40;99.90;;;;;;4989212;28;20476;-65
2023/10/05 16:21:51;;;;;;;5.27;2.97;;;14.40;99.90;;;;;;4993498;28;20484;-65
2023/10/05 16:24:18;;;;;;;2.43;2.20;;;14.30;99.90;;;;;;4993259;28;20483;-65
2023/10/05 16:26:45;;;;;;;4.73;2.20;;;14.30;99.90;;;;;;4993521;28;20588;-65
2023/10/05 16:29:13;;;;;;;6.50;2.60;;;14.20;99.90;;;;;;4993460;28;20494;-65
2023/10/05 16:31:40;;;;;;;3.57;2.07;;;14.20;99.90;;;;;;4993202;28;20879;-65
2023/10/05 16:34:09;;;;;;;4.33;2.23;;;14.20;99.90;;;;;;4993316;28;20467;-65
2023/10/05 16:36:39;;;;;;;5.80;2.47;;;14.20;99.90;;;;;;4992826;28;20463;-65
2023/10/05 16:39:07;;;;;;;4.13;2.60;;;14.10;99.90;;;;;;4993127;28;20554;-65
2023/10/05 16:41:33;;;;;;;3.27;2.23;;;14.10;99.90;;;;;;4992963;28;20521;-64
2023/10/05 16:44:00;;;;;;;4.33;3.07;;;14.10;99.90;;;;;;4993133;28;20463;-65
2023/10/05 16:46:27;;;;;;;3.73;2.30;;;14.00;99.90;;;;;;4992846;28;20459;-66
2023/10/05 16:48:55;;;;;;;4.93;2.80;;;14.00;99.90;;;;;;4993289;28;20500;-65
2023/10/05 16:51:23;;;;;;;4.73;2.30;;;14.00;99.90;;;;;;4992772;28;20494;-66
2023/10/05 16:53:51;;;;;;;4.60;2.17;;;13.90;99.90;;;;;;4993145;28;20471;-65
2023/10/05 16:56:18;;;;;;;6.10;2.27;;;13.90;99.90;;;;;;4992686;28;20468;-65
2023/10/05 16:58:44;;;;;;;6.37;2.97;;;13.80;99.90;;;;;;5050876;23;20481;-68
2023/10/05 17:01:11;;;;;;;5.03;2.23;;;13.80;99.90;;;;;;5008716;28;20471;-68
2023/10/05 17:03:38;;;;;;;4.40;2.40;;;13.70;99.90;;;;;;5008757;28;20486;-68